sensor_id;sensor_type;location;lat;lon;timestamp;P1;durP1;ratioP1;P2;durP2;ratioP2
9970;SDS011;5026;51.494;11.974;2023-08-12T00:01:52;7.07;;;3.85;;
9970;SDS011;5026;51.494;11.974;2023-08-12T00:04:19;8.90;;;3.92;;
9970;SDS011;5026;51.494;11.974;2023-08-12T00:06:46;12.50;;;3.42;;
9970;SDS011;5026;51.494;11.974;2023-08-12T00:09:13;14.80;;;4.80;;
9970;SDS011;5026;51.494;11.974;2023-08-12T00:11:40;7.22;;;3.22;;
9970;SDS011;5026;51.494;11.974;2023-08-12T00:14:07;6.40;;;3.42;;
9970;SDS011;5026;51.494;11.974;2023-08-12T00:16:34;7.82;;;3.58;;
9970;SDS011;5026;51.494;11.974;2023-08-12T00:19:03;8.45;;;3.75;;
9970;SDS011;5026;51.494;11.974;2023-08-12T00:21:30;9.50;;;3.78;;
9970;SDS011;5026;51.494;11.974;2023-08-12T00:23:57;11.10;;;3.53;;
9970;SDS011;5026;51.494;11.974;2023-08-12T00:26:24;11.70;;;4.07;;
9970;SDS011;5026;51.494;11.974;2023-08-12T00:28:52;5.40;;;3.10;;
9970;SDS011;5026;51.494;11.974;2023-08-12T00:31:19;9.00;;;3.80;;
9970;SDS011;5026;51.494;11.974;2023-08-12T00:33:46;7.97;;;3.47;;
9970;SDS011;5026;51.494;11.974;2023-08-12T00:36:15;12.60;;;4.45;;
9970;SDS011;5026;51.494;11.974;2023-08-12T00:38:42;10.77;;;4.25;;
9970;SDS011;5026;51.494;11.974;2023-08-12T00:41:09;8.00;;;3.78;;
9970;SDS011;5026;51.494;11.974;2023-08-12T00:43:37;11.30;;;3.50;;
9970;SDS011;5026;51.494;11.974;2023-08-12T00:46:04;7.07;;;3.40;;
9970;SDS011;5026;51.494;11.974;2023-08-12T00:48:31;8.15;;;3.85;;
9970;SDS011;5026;51.494;11.974;2023-08-12T00:50:58;10.93;;;3.97;;
9970;SDS011;5026;51.494;11.974;2023-08-12T00:53:27;9.40;;;4.10;;
9970;SDS011;5026;51.494;11.974;2023-08-12T00:55:54;8.27;;;3.28;;
9970;SDS011;5026;51.494;11.974;2023-08-12T00:58:21;6.53;;;3.55;;
9970;SDS011;5026;51.494;11.974;2023-08-12T01:00:48;12.10;;;4.25;;
9970;SDS011;5026;51.494;11.974;2023-08-12T01:03:16;8.98;;;3.70;;
9970;SDS011;5026;51.494;11.974;2023-08-12T01:05:44;6.40;;;3.47;;
9970;SDS011;5026;51.494;11.974;2023-08-12T01:08:12;7.95;;;4.07;;
9970;SDS011;5026;51.494;11.974;2023-08-12T01:10:47;10.98;;;3.95;;
9970;SDS011;5026;51.494;11.974;2023-08-12T01:13:23;9.25;;;3.88;;
9970;SDS011;5026;51.494;11.974;2023-08-12T01:15:56;6.30;;;3.45;;
9970;SDS011;5026;51.494;11.974;2023-08-12T01:18:24;12.23;;;4.00;;
9970;SDS011;5026;51.494;11.974;2023-08-12T01:20:52;9.63;;;3.83;;
9970;SDS011;5026;51.494;11.974;2023-08-12T01:23:21;9.23;;;3.75;;
9970;SDS011;5026;51.494;11.974;2023-08-12T01:25:48;6.68;;;3.60;;
9970;SDS011;5026;51.494;11.974;2023-08-12T01:28:14;8.68;;;2.85;;
9970;SDS011;5026;51.494;11.974;2023-08-12T01:30:44;14.48;;;5.38;;
9970;SDS011;5026;51.494;11.974;2023-08-12T01:33:21;11.23;;;3.72;;
9970;SDS011;5026;51.494;11.974;2023-08-12T01:35:52;5.53;;;3.22;;
9970;SDS011;5026;51.494;11.974;2023-08-12T01:38:22;6.95;;;3.28;;
9970;SDS011;5026;51.494;11.974;2023-08-12T01:40:51;14.52;;;5.07;;
9970;SDS011;5026;51.494;11.974;2023-08-12T01:43:19;6.47;;;3.65;;
9970;SDS011;5026;51.494;11.974;2023-08-12T01:45:46;4.32;;;2.88;;
9970;SDS011;5026;51.494;11.974;2023-08-12T01:48:13;6.03;;;3.67;;
9970;SDS011;5026;51.494;11.974;2023-08-12T01:50:41;12.52;;;4.13;;
9970;SDS011;5026;51.494;11.974;2023-08-12T01:53:12;7.93;;;3.92;;
9970;SDS011;5026;51.494;11.974;2023-08-12T01:55:42;9.43;;;3.88;;
9970;SDS011;5026;51.494;11.974;2023-08-12T01:58:10;9.43;;;3.72;;
9970;SDS011;5026;51.494;11.974;2023-08-12T02:00:37;11.45;;;4.13;;
9970;SDS011;5026;51.494;11.974;2023-08-12T02:03:04;8.43;;;3.95;;
9970;SDS011;5026;51.494;11.974;2023-08-12T02:05:31;6.82;;;4.22;;
9970;SDS011;5026;51.494;11.974;2023-08-12T02:07:58;9.40;;;3.70;;
9970;SDS011;5026;51.494;11.974;2023-08-12T02:10:26;6.85;;;3.53;;
9970;SDS011;5026;51.494;11.974;2023-08-12T02:12:54;9.52;;;3.90;;
9970;SDS011;5026;51.494;11.974;2023-08-12T02:15:21;11.63;;;4.50;;
9970;SDS011;5026;51.494;11.974;2023-08-12T02:17:48;14.63;;;4.63;;
9970;SDS011;5026;51.494;11.974;2023-08-12T02:20:15;5.80;;;3.67;;
9970;SDS011;5026;51.494;11.974;2023-08-12T02:22:43;9.52;;;4.15;;
9970;SDS011;5026;51.494;11.974;2023-08-12T02:25:10;8.43;;;3.95;;
9970;SDS011;5026;51.494;11.974;2023-08-12T02:27:37;10.65;;;4.32;;
9970;SDS011;5026;51.494;11.974;2023-08-12T02:30:07;10.15;;;3.95;;
9970;SDS011;5026;51.494;11.974;2023-08-12T02:32:34;8.90;;;3.92;;
9970;SDS011;5026;51.494;11.974;2023-08-12T02:35:01;10.38;;;3.92;;
9970;SDS011;5026;51.494;11.974;2023-08-12T02:37:28;8.68;;;4.25;;
9970;SDS011;5026;51.494;11.974;2023-08-12T02:39:55;8.90;;;4.03;;
9970;SDS011;5026;51.494;11.974;2023-08-12T02:42:22;7.97;;;4.50;;
9970;SDS011;5026;51.494;11.974;2023-08-12T02:44:50;11.63;;;5.05;;
9970;SDS011;5026;51.494;11.974;2023-08-12T02:47:18;8.20;;;4.28;;
9970;SDS011;5026;51.494;11.974;2023-08-12T02:49:45;9.57;;;4.22;;
9970;SDS011;5026;51.494;11.974;2023-08-12T02:52:12;13.98;;;4.65;;
9970;SDS011;5026;51.494;11.974;2023-08-12T02:54:39;8.75;;;4.50;;
9970;SDS011;5026;51.494;11.974;2023-08-12T02:57:06;7.85;;;3.95;;
9970;SDS011;5026;51.494;11.974;2023-08-12T02:59:34;10.75;;;4.10;;
9970;SDS011;5026;51.494;11.974;2023-08-12T03:02:01;8.50;;;3.90;;
9970;SDS011;5026;51.494;11.974;2023-08-12T03:04:29;6.63;;;3.17;;
9970;SDS011;5026;51.494;11.974;2023-08-12T03:06:56;7.82;;;3.75;;
9970;SDS011;5026;51.494;11.974;2023-08-12T03:09:23;9.05;;;4.43;;
9970;SDS011;5026;51.494;11.974;2023-08-12T03:11:50;10.60;;;4.00;;
9970;SDS011;5026;51.494;11.974;2023-08-12T03:14:17;9.20;;;4.07;;
9970;SDS011;5026;51.494;11.974;2023-08-12T03:16:45;10.23;;;4.72;;
9970;SDS011;5026;51.494;11.974;2023-08-12T03:19:12;7.50;;;4.25;;
9970;SDS011;5026;51.494;11.974;2023-08-12T03:21:40;5.75;;;3.88;;
9970;SDS011;5026;51.494;11.974;2023-08-12T03:24:07;11.98;;;5.22;;
9970;SDS011;5026;51.494;11.974;2023-08-12T03:26:34;9.75;;;4.40;;
9970;SDS011;5026;51.494;11.974;2023-08-12T03:29:01;8.27;;;3.90;;
9970;SDS011;5026;51.494;11.974;2023-08-12T03:31:28;8.52;;;4.32;;
9970;SDS011;5026;51.494;11.974;2023-08-12T03:33:54;8.20;;;4.43;;
9970;SDS011;5026;51.494;11.974;2023-08-12T03:36:21;6.43;;;3.80;;
9970;SDS011;5026;51.494;11.974;2023-08-12T03:38:50;9.30;;;4.63;;
9970;SDS011;5026;51.494;11.974;2023-08-12T03:41:17;8.55;;;4.60;;
9970;SDS011;5026;51.494;11.974;2023-08-12T03:43:44;11.02;;;4.45;;
9970;SDS011;5026;51.494;11.974;2023-08-12T03:46:11;9.77;;;3.80;;
9970;SDS011;5026;51.494;11.974;2023-08-12T03:48:37;6.80;;;4.13;;
9970;SDS011;5026;51.494;11.974;2023-08-12T03:51:05;6.85;;;4.47;;
9970;SDS011;5026;51.494;11.974;2023-08-12T03:53:32;7.45;;;4.30;;
9970;SDS011;5026;51.494;11.974;2023-08-12T03:56:00;12.45;;;4.38;;
9970;SDS011;5026;51.494;11.974;2023-08-12T03:58:28;10.90;;;4.50;;
9970;SDS011;5026;51.494;11.974;2023-08-12T04:00:54;9.90;;;4.05;;
9970;SDS011;5026;51.494;11.974;2023-08-12T04:03:21;10.10;;;5.10;;
9970;SDS011;5026;51.494;11.974;2023-08-12T04:05:48;13.10;;;4.72;;
9970;SDS011;5026;51.494;11.974;2023-08-12T04:08:17;7.68;;;4.57;;
9970;SDS011;5026;51.494;11.974;2023-08-12T04:10:45;15.73;;;5.35;;
9970;SDS011;5026;51.494;11.974;2023-08-12T04:13:14;6.25;;;4.18;;
9970;SDS011;5026;51.494;11.974;2023-08-12T04:15:41;13.93;;;4.53;;
9970;SDS011;5026;51.494;11.974;2023-08-12T04:18:09;6.55;;;4.00;;
9970;SDS011;5026;51.494;11.974;2023-08-12T04:20:36;6.63;;;4.47;;
9970;SDS011;5026;51.494;11.974;2023-08-12T04:23:04;11.07;;;4.20;;
9970;SDS011;5026;51.494;11.974;2023-08-12T04:25:31;8.88;;;4.28;;
9970;SDS011;5026;51.494;11.974;2023-08-12T04:27:58;11.43;;;3.95;;
9970;SDS011;5026;51.494;11.974;2023-08-12T04:30:26;13.85;;;5.15;;
9970;SDS011;5026;51.494;11.974;2023-08-12T04:32:53;7.70;;;4.60;;
9970;SDS011;5026;51.494;11.974;2023-08-12T04:35:20;8.80;;;4.43;;
9970;SDS011;5026;51.494;11.974;2023-08-12T04:37:47;10.30;;;4.07;;
9970;SDS011;5026;51.494;11.974;2023-08-12T04:40:14;10.50;;;4.38;;
9970;SDS011;5026;51.494;11.974;2023-08-12T04:42:41;11.00;;;4.68;;
9970;SDS011;5026;51.494;11.974;2023-08-12T04:45:09;11.18;;;4.35;;
9970;SDS011;5026;51.494;11.974;2023-08-12T04:47:37;9.25;;;4.07;;
9970;SDS011;5026;51.494;11.974;2023-08-12T04:50:05;11.32;;;4.57;;
9970;SDS011;5026;51.494;11.974;2023-08-12T04:52:32;6.05;;;3.83;;
9970;SDS011;5026;51.494;11.974;2023-08-12T04:54:59;8.88;;;3.70;;
9970;SDS011;5026;51.494;11.974;2023-08-12T04:57:26;9.95;;;4.18;;
9970;SDS011;5026;51.494;11.974;2023-08-12T04:59:53;7.65;;;4.43;;
9970;SDS011;5026;51.494;11.974;2023-08-12T05:02:20;11.13;;;4.30;;
9970;SDS011;5026;51.494;11.974;2023-08-12T05:04:49;23.55;;;4.95;;
9970;SDS011;5026;51.494;11.974;2023-08-12T05:07:16;6.32;;;4.03;;
9970;SDS011;5026;51.494;11.974;2023-08-12T05:09:44;6.68;;;4.05;;
9970;SDS011;5026;51.494;11.974;2023-08-12T05:12:10;9.60;;;4.38;;
9970;SDS011;5026;51.494;11.974;2023-08-12T05:14:38;7.97;;;4.65;;
9970;SDS011;5026;51.494;11.974;2023-08-12T05:17:06;7.43;;;4.13;;
9970;SDS011;5026;51.494;11.974;2023-08-12T05:19:33;5.53;;;3.83;;
9970;SDS011;5026;51.494;11.974;2023-08-12T05:22:01;7.80;;;4.25;;
9970;SDS011;5026;51.494;11.974;2023-08-12T05:24:28;9.70;;;4.35;;
9970;SDS011;5026;51.494;11.974;2023-08-12T05:26:55;5.88;;;4.07;;
9970;SDS011;5026;51.494;11.974;2023-08-12T05:29:22;13.40;;;4.35;;
9970;SDS011;5026;51.494;11.974;2023-08-12T05:31:49;8.68;;;4.80;;
9970;SDS011;5026;51.494;11.974;2023-08-12T05:34:16;11.70;;;4.43;;
9970;SDS011;5026;51.494;11.974;2023-08-12T05:36:43;7.28;;;4.30;;
9970;SDS011;5026;51.494;11.974;2023-08-12T05:39:12;8.38;;;4.90;;
9970;SDS011;5026;51.494;11.974;2023-08-12T05:41:40;7.18;;;4.00;;
9970;SDS011;5026;51.494;11.974;2023-08-12T05:44:07;7.97;;;4.45;;
9970;SDS011;5026;51.494;11.974;2023-08-12T05:46:34;8.15;;;4.07;;
9970;SDS011;5026;51.494;11.974;2023-08-12T05:49:01;6.60;;;4.07;;
9970;SDS011;5026;51.494;11.974;2023-08-12T05:51:29;9.40;;;4.53;;
9970;SDS011;5026;51.494;11.974;2023-08-12T05:53:57;6.47;;;4.15;;
9970;SDS011;5026;51.494;11.974;2023-08-12T05:56:25;11.43;;;4.40;;
9970;SDS011;5026;51.494;11.974;2023-08-12T05:58:52;10.65;;;4.75;;
9970;SDS011;5026;51.494;11.974;2023-08-12T06:01:19;5.78;;;3.90;;
9970;SDS011;5026;51.494;11.974;2023-08-12T06:03:46;5.78;;;3.55;;
9970;SDS011;5026;51.494;11.974;2023-08-12T06:06:13;7.68;;;3.65;;
9970;SDS011;5026;51.494;11.974;2023-08-12T06:08:41;8.20;;;4.03;;
9970;SDS011;5026;51.494;11.974;2023-08-12T06:11:08;5.13;;;3.70;;
9970;SDS011;5026;51.494;11.974;2023-08-12T06:13:36;8.57;;;3.53;;
9970;SDS011;5026;51.494;11.974;2023-08-12T06:16:03;7.15;;;4.38;;
9970;SDS011;5026;51.494;11.974;2023-08-12T06:18:30;7.22;;;4.00;;
9970;SDS011;5026;51.494;11.974;2023-08-12T06:20:57;9.57;;;4.82;;
9970;SDS011;5026;51.494;11.974;2023-08-12T06:23:24;6.53;;;4.07;;
9970;SDS011;5026;51.494;11.974;2023-08-12T06:25:51;6.80;;;3.60;;
9970;SDS011;5026;51.494;11.974;2023-08-12T06:28:18;6.78;;;3.47;;
9970;SDS011;5026;51.494;11.974;2023-08-12T06:30:46;10.18;;;4.25;;
9970;SDS011;5026;51.494;11.974;2023-08-12T06:33:13;8.70;;;3.67;;
9970;SDS011;5026;51.494;11.974;2023-08-12T06:35:41;6.20;;;4.07;;
9970;SDS011;5026;51.494;11.974;2023-08-12T06:38:08;6.05;;;4.20;;
9970;SDS011;5026;51.494;11.974;2023-08-12T06:40:37;7.35;;;3.70;;
9970;SDS011;5026;51.494;11.974;2023-08-12T06:43:04;6.30;;;3.45;;
9970;SDS011;5026;51.494;11.974;2023-08-12T06:45:32;6.00;;;4.15;;
9970;SDS011;5026;51.494;11.974;2023-08-12T06:48:00;4.63;;;3.65;;
9970;SDS011;5026;51.494;11.974;2023-08-12T06:50:28;4.80;;;3.60;;
9970;SDS011;5026;51.494;11.974;2023-08-12T06:52:55;7.03;;;3.90;;
9970;SDS011;5026;51.494;11.974;2023-08-12T06:55:22;4.28;;;3.75;;
9970;SDS011;5026;51.494;11.974;2023-08-12T06:57:49;7.63;;;4.45;;
9970;SDS011;5026;51.494;11.974;2023-08-12T07:00:16;5.13;;;4.07;;
9970;SDS011;5026;51.494;11.974;2023-08-12T07:02:43;7.93;;;4.13;;
9970;SDS011;5026;51.494;11.974;2023-08-12T07:05:12;7.30;;;3.72;;
9970;SDS011;5026;51.494;11.974;2023-08-12T07:07:39;4.70;;;3.83;;
9970;SDS011;5026;51.494;11.974;2023-08-12T07:10:06;6.90;;;3.70;;
9970;SDS011;5026;51.494;11.974;2023-08-12T07:12:33;4.32;;;3.50;;
9970;SDS011;5026;51.494;11.974;2023-08-12T07:15:01;5.32;;;3.70;;
9970;SDS011;5026;51.494;11.974;2023-08-12T07:17:28;10.40;;;4.78;;
9970;SDS011;5026;51.494;11.974;2023-08-12T07:19:55;8.30;;;4.20;;
9970;SDS011;5026;51.494;11.974;2023-08-12T07:22:24;4.72;;;3.78;;
9970;SDS011;5026;51.494;11.974;2023-08-12T07:24:51;8.00;;;4.00;;
9970;SDS011;5026;51.494;11.974;2023-08-12T07:27:17;5.82;;;3.95;;
9970;SDS011;5026;51.494;11.974;2023-08-12T07:29:45;6.20;;;3.50;;
9970;SDS011;5026;51.494;11.974;2023-08-12T07:32:12;6.53;;;3.72;;
9970;SDS011;5026;51.494;11.974;2023-08-12T07:34:39;7.55;;;3.97;;
9970;SDS011;5026;51.494;11.974;2023-08-12T07:37:06;10.55;;;4.75;;
9970;SDS011;5026;51.494;11.974;2023-08-12T07:39:35;10.52;;;4.65;;
9970;SDS011;5026;51.494;11.974;2023-08-12T07:42:02;5.85;;;4.53;;
9970;SDS011;5026;51.494;11.974;2023-08-12T07:44:29;6.65;;;4.57;;
9970;SDS011;5026;51.494;11.974;2023-08-12T07:46:56;9.13;;;4.60;;
9970;SDS011;5026;51.494;11.974;2023-08-12T07:49:23;7.15;;;4.22;;
9970;SDS011;5026;51.494;11.974;2023-08-12T07:51:51;9.88;;;4.75;;
9970;SDS011;5026;51.494;11.974;2023-08-12T07:54:17;7.53;;;4.40;;
9970;SDS011;5026;51.494;11.974;2023-08-12T07:56:47;11.82;;;5.35;;
9970;SDS011;5026;51.494;11.974;2023-08-12T07:59:14;7.70;;;4.60;;
9970;SDS011;5026;51.494;11.974;2023-08-12T08:01:42;6.25;;;4.40;;
9970;SDS011;5026;51.494;11.974;2023-08-12T08:04:09;6.75;;;4.55;;
9970;SDS011;5026;51.494;11.974;2023-08-12T08:06:35;6.95;;;4.68;;
9970;SDS011;5026;51.494;11.974;2023-08-12T08:09:02;6.55;;;4.85;;
9970;SDS011;5026;51.494;11.974;2023-08-12T08:11:30;8.30;;;5.47;;
9970;SDS011;5026;51.494;11.974;2023-08-12T08:13:58;11.75;;;5.97;;
9970;SDS011;5026;51.494;11.974;2023-08-12T08:16:26;8.57;;;4.97;;
9970;SDS011;5026;51.494;11.974;2023-08-12T08:18:53;8.35;;;5.63;;
9970;SDS011;5026;51.494;11.974;2023-08-12T08:21:20;6.35;;;5.07;;
9970;SDS011;5026;51.494;11.974;2023-08-12T08:23:47;7.72;;;4.95;;
9970;SDS011;5026;51.494;11.974;2023-08-12T08:26:14;6.43;;;4.90;;
9970;SDS011;5026;51.494;11.974;2023-08-12T08:28:41;7.68;;;5.35;;
9970;SDS011;5026;51.494;11.974;2023-08-12T08:31:10;7.55;;;4.95;;
9970;SDS011;5026;51.494;11.974;2023-08-12T08:33:37;6.22;;;5.07;;
9970;SDS011;5026;51.494;11.974;2023-08-12T08:36:04;6.03;;;4.60;;
9970;SDS011;5026;51.494;11.974;2023-08-12T08:38:31;6.53;;;5.00;;
9970;SDS011;5026;51.494;11.974;2023-08-12T08:40:58;7.85;;;5.05;;
9970;SDS011;5026;51.494;11.974;2023-08-12T08:43:26;6.50;;;4.68;;
9970;SDS011;5026;51.494;11.974;2023-08-12T08:45:54;10.02;;;5.00;;
9970;SDS011;5026;51.494;11.974;2023-08-12T08:48:22;5.40;;;4.85;;
9970;SDS011;5026;51.494;11.974;2023-08-12T08:50:49;6.82;;;4.93;;
9970;SDS011;5026;51.494;11.974;2023-08-12T08:53:17;5.43;;;4.53;;
9970;SDS011;5026;51.494;11.974;2023-08-12T08:55:46;7.75;;;5.20;;
9970;SDS011;5026;51.494;11.974;2023-08-12T08:58:13;6.53;;;4.70;;
9970;SDS011;5026;51.494;11.974;2023-08-12T09:00:40;8.90;;;5.55;;
9970;SDS011;5026;51.494;11.974;2023-08-12T09:03:08;10.38;;;5.18;;
9970;SDS011;5026;51.494;11.974;2023-08-12T09:05:37;7.80;;;4.63;;
9970;SDS011;5026;51.494;11.974;2023-08-12T09:08:06;7.68;;;5.00;;
9970;SDS011;5026;51.494;11.974;2023-08-12T09:10:36;6.80;;;4.78;;
9970;SDS011;5026;51.494;11.974;2023-08-12T09:13:05;6.82;;;4.10;;
9970;SDS011;5026;51.494;11.974;2023-08-12T09:15:33;6.35;;;4.70;;
9970;SDS011;5026;51.494;11.974;2023-08-12T09:18:00;5.50;;;4.38;;
9970;SDS011;5026;51.494;11.974;2023-08-12T09:20:28;4.82;;;4.28;;
9970;SDS011;5026;51.494;11.974;2023-08-12T09:22:56;8.73;;;4.85;;
9970;SDS011;5026;51.494;11.974;2023-08-12T09:25:24;5.80;;;4.18;;
9970;SDS011;5026;51.494;11.974;2023-08-12T09:27:53;7.55;;;4.68;;
9970;SDS011;5026;51.494;11.974;2023-08-12T09:30:21;5.93;;;4.22;;
9970;SDS011;5026;51.494;11.974;2023-08-12T09:32:57;12.27;;;6.28;;
9970;SDS011;5026;51.494;11.974;2023-08-12T09:35:30;8.25;;;4.60;;
9970;SDS011;5026;51.494;11.974;2023-08-12T09:38:01;7.57;;;5.13;;
9970;SDS011;5026;51.494;11.974;2023-08-12T09:40:29;6.30;;;4.93;;
9970;SDS011;5026;51.494;11.974;2023-08-12T09:42:56;7.70;;;4.18;;
9970;SDS011;5026;51.494;11.974;2023-08-12T09:45:23;8.02;;;4.75;;
9970;SDS011;5026;51.494;11.974;2023-08-12T09:47:52;7.38;;;4.97;;
9970;SDS011;5026;51.494;11.974;2023-08-12T09:50:20;7.22;;;4.30;;
9970;SDS011;5026;51.494;11.974;2023-08-12T09:52:48;8.57;;;5.30;;
9970;SDS011;5026;51.494;11.974;2023-08-12T09:55:17;11.02;;;5.20;;
9970;SDS011;5026;51.494;11.974;2023-08-12T09:57:44;6.28;;;4.65;;
9970;SDS011;5026;51.494;11.974;2023-08-12T10:00:15;7.88;;;4.65;;
9970;SDS011;5026;51.494;11.974;2023-08-12T10:02:43;7.63;;;5.07;;
9970;SDS011;5026;51.494;11.974;2023-08-12T10:05:11;7.28;;;4.82;;
9970;SDS011;5026;51.494;11.974;2023-08-12T10:07:39;11.18;;;5.80;;
9970;SDS011;5026;51.494;11.974;2023-08-12T10:10:06;7.93;;;4.75;;
9970;SDS011;5026;51.494;11.974;2023-08-12T10:12:35;9.57;;;6.25;;
9970;SDS011;5026;51.494;11.974;2023-08-12T10:15:03;7.68;;;4.78;;
9970;SDS011;5026;51.494;11.974;2023-08-12T10:17:32;11.75;;;4.93;;
9970;SDS011;5026;51.494;11.974;2023-08-12T10:20:00;6.80;;;4.45;;
9970;SDS011;5026;51.494;11.974;2023-08-12T10:22:29;7.10;;;4.45;;
9970;SDS011;5026;51.494;11.974;2023-08-12T10:24:56;6.18;;;4.03;;
9970;SDS011;5026;51.494;11.974;2023-08-12T10:27:25;7.70;;;4.30;;
9970;SDS011;5026;51.494;11.974;2023-08-12T10:29:54;8.15;;;4.53;;
9970;SDS011;5026;51.494;11.974;2023-08-12T10:32:22;5.85;;;3.47;;
9970;SDS011;5026;51.494;11.974;2023-08-12T10:34:53;8.88;;;4.68;;
9970;SDS011;5026;51.494;11.974;2023-08-12T10:37:22;6.38;;;4.28;;
9970;SDS011;5026;51.494;11.974;2023-08-12T10:39:51;6.95;;;3.72;;
9970;SDS011;5026;51.494;11.974;2023-08-12T10:45:10;7.07;;;3.83;;
9970;SDS011;5026;51.494;11.974;2023-08-12T10:47:38;4.57;;;3.70;;
9970;SDS011;5026;51.494;11.974;2023-08-12T10:50:06;6.10;;;3.33;;
9970;SDS011;5026;51.494;11.974;2023-08-12T10:52:33;5.78;;;3.60;;
9970;SDS011;5026;51.494;11.974;2023-08-12T10:55:20;3.63;;;2.83;;
9970;SDS011;5026;51.494;11.974;2023-08-12T10:57:48;4.65;;;3.30;;
9970;SDS011;5026;51.494;11.974;2023-08-12T11:00:18;4.10;;;3.50;;
9970;SDS011;5026;51.494;11.974;2023-08-12T11:02:48;6.22;;;3.67;;
9970;SDS011;5026;51.494;11.974;2023-08-12T11:05:16;3.65;;;2.97;;
9970;SDS011;5026;51.494;11.974;2023-08-12T11:07:45;5.30;;;3.00;;
9970;SDS011;5026;51.494;11.974;2023-08-12T11:10:15;4.15;;;3.20;;
9970;SDS011;5026;51.494;11.974;2023-08-12T11:12:47;7.18;;;3.40;;
9970;SDS011;5026;51.494;11.974;2023-08-12T11:15:28;5.57;;;3.17;;
9970;SDS011;5026;51.494;11.974;2023-08-12T11:17:56;4.38;;;3.42;;
9970;SDS011;5026;51.494;11.974;2023-08-12T11:20:23;7.93;;;4.30;;
9970;SDS011;5026;51.494;11.974;2023-08-12T11:22:53;7.88;;;3.78;;
9970;SDS011;5026;51.494;11.974;2023-08-12T11:25:20;5.40;;;3.53;;
9970;SDS011;5026;51.494;11.974;2023-08-12T11:27:48;6.30;;;3.75;;
9970;SDS011;5026;51.494;11.974;2023-08-12T11:30:15;8.38;;;3.65;;
9970;SDS011;5026;51.494;11.974;2023-08-12T11:32:46;6.35;;;4.00;;
9970;SDS011;5026;51.494;11.974;2023-08-12T11:35:14;7.07;;;4.03;;
9970;SDS011;5026;51.494;11.974;2023-08-12T11:37:42;8.73;;;4.50;;
9970;SDS011;5026;51.494;11.974;2023-08-12T11:40:10;8.52;;;3.47;;
9970;SDS011;5026;51.494;11.974;2023-08-12T11:42:39;6.15;;;3.63;;
9970;SDS011;5026;51.494;11.974;2023-08-12T11:45:07;5.68;;;3.33;;
9970;SDS011;5026;51.494;11.974;2023-08-12T11:47:36;4.32;;;3.30;;
9970;SDS011;5026;51.494;11.974;2023-08-12T11:50:05;5.80;;;3.53;;
9970;SDS011;5026;51.494;11.974;2023-08-12T11:52:32;4.63;;;3.50;;
9970;SDS011;5026;51.494;11.974;2023-08-12T11:55:00;5.40;;;3.30;;
9970;SDS011;5026;51.494;11.974;2023-08-12T11:57:27;4.00;;;2.65;;
9970;SDS011;5026;51.494;11.974;2023-08-12T11:59:58;3.25;;;2.83;;
9970;SDS011;5026;51.494;11.974;2023-08-12T12:02:25;3.33;;;2.72;;
9970;SDS011;5026;51.494;11.974;2023-08-12T12:04:52;7.03;;;3.60;;
9970;SDS011;5026;51.494;11.974;2023-08-12T12:07:22;3.85;;;3.25;;
9970;SDS011;5026;51.494;11.974;2023-08-12T12:09:50;4.70;;;3.42;;
9970;SDS011;5026;51.494;11.974;2023-08-12T12:12:21;4.38;;;2.90;;
9970;SDS011;5026;51.494;11.974;2023-08-12T12:14:48;7.45;;;3.47;;
9970;SDS011;5026;51.494;11.974;2023-08-12T12:17:17;5.40;;;3.58;;
9970;SDS011;5026;51.494;11.974;2023-08-12T12:19:45;7.00;;;3.28;;
9970;SDS011;5026;51.494;11.974;2023-08-12T12:22:11;5.30;;;2.85;;
9970;SDS011;5026;51.494;11.974;2023-08-12T12:24:46;4.78;;;3.20;;
9970;SDS011;5026;51.494;11.974;2023-08-12T12:27:13;4.57;;;3.28;;
9970;SDS011;5026;51.494;11.974;2023-08-12T12:29:41;4.03;;;3.30;;
9970;SDS011;5026;51.494;11.974;2023-08-12T12:32:08;4.57;;;3.15;;
9970;SDS011;5026;51.494;11.974;2023-08-12T12:34:35;5.22;;;3.42;;
9970;SDS011;5026;51.494;11.974;2023-08-12T12:37:02;3.92;;;2.90;;
9970;SDS011;5026;51.494;11.974;2023-08-12T12:39:29;7.32;;;3.08;;
9970;SDS011;5026;51.494;11.974;2023-08-12T12:41:58;8.57;;;3.40;;
9970;SDS011;5026;51.494;11.974;2023-08-12T12:44:26;6.30;;;3.30;;
9970;SDS011;5026;51.494;11.974;2023-08-12T12:46:53;6.28;;;3.58;;
9970;SDS011;5026;51.494;11.974;2023-08-12T12:49:20;6.20;;;3.03;;
9970;SDS011;5026;51.494;11.974;2023-08-12T12:51:47;4.10;;;3.03;;
9970;SDS011;5026;51.494;11.974;2023-08-12T12:54:14;4.03;;;3.22;;
9970;SDS011;5026;51.494;11.974;2023-08-12T12:56:41;7.03;;;3.83;;
9970;SDS011;5026;51.494;11.974;2023-08-12T12:59:10;6.28;;;3.20;;
9970;SDS011;5026;51.494;11.974;2023-08-12T13:01:37;5.78;;;3.70;;
9970;SDS011;5026;51.494;11.974;2023-08-12T13:04:04;5.68;;;3.50;;
9970;SDS011;5026;51.494;11.974;2023-08-12T13:06:33;3.47;;;2.90;;
9970;SDS011;5026;51.494;11.974;2023-08-12T13:09:00;5.57;;;3.03;;
9970;SDS011;5026;51.494;11.974;2023-08-12T13:11:28;4.30;;;3.22;;
9970;SDS011;5026;51.494;11.974;2023-08-12T13:13:55;7.05;;;3.63;;
9970;SDS011;5026;51.494;11.974;2023-08-12T13:16:23;6.13;;;3.22;;
9970;SDS011;5026;51.494;11.974;2023-08-12T13:18:51;5.20;;;3.53;;
9970;SDS011;5026;51.494;11.974;2023-08-12T13:21:18;5.75;;;3.17;;
9970;SDS011;5026;51.494;11.974;2023-08-12T13:23:44;4.93;;;3.47;;
9970;SDS011;5026;51.494;11.974;2023-08-12T13:26:12;4.00;;;3.08;;
9970;SDS011;5026;51.494;11.974;2023-08-12T13:28:39;4.18;;;3.10;;
9970;SDS011;5026;51.494;11.974;2023-08-12T13:31:06;5.45;;;3.35;;
9970;SDS011;5026;51.494;11.974;2023-08-12T13:33:35;4.30;;;3.10;;
9970;SDS011;5026;51.494;11.974;2023-08-12T13:36:02;7.35;;;3.00;;
9970;SDS011;5026;51.494;11.974;2023-08-12T13:38:29;5.72;;;3.08;;
9970;SDS011;5026;51.494;11.974;2023-08-12T13:40:56;7.63;;;3.80;;
9970;SDS011;5026;51.494;11.974;2023-08-12T13:43:23;4.45;;;3.50;;
9970;SDS011;5026;51.494;11.974;2023-08-12T13:45:50;3.55;;;2.60;;
9970;SDS011;5026;51.494;11.974;2023-08-12T13:48:17;5.65;;;3.38;;
9970;SDS011;5026;51.494;11.974;2023-08-12T13:50:45;6.90;;;3.63;;
9970;SDS011;5026;51.494;11.974;2023-08-12T13:53:14;6.65;;;3.85;;
9970;SDS011;5026;51.494;11.974;2023-08-12T13:55:41;5.35;;;3.22;;
9970;SDS011;5026;51.494;11.974;2023-08-12T13:58:08;7.57;;;3.22;;
9970;SDS011;5026;51.494;11.974;2023-08-12T14:00:35;4.22;;;2.72;;
9970;SDS011;5026;51.494;11.974;2023-08-12T14:03:03;7.45;;;4.05;;
9970;SDS011;5026;51.494;11.974;2023-08-12T14:05:30;6.57;;;3.85;;
9970;SDS011;5026;51.494;11.974;2023-08-12T14:07:58;5.57;;;3.40;;
9970;SDS011;5026;51.494;11.974;2023-08-12T14:10:26;8.38;;;4.13;;
9970;SDS011;5026;51.494;11.974;2023-08-12T14:12:53;8.80;;;4.32;;
9970;SDS011;5026;51.494;11.974;2023-08-12T14:15:20;4.20;;;3.47;;
9970;SDS011;5026;51.494;11.974;2023-08-12T14:17:47;4.18;;;3.60;;
9970;SDS011;5026;51.494;11.974;2023-08-12T14:20:14;6.53;;;3.72;;
9970;SDS011;5026;51.494;11.974;2023-08-12T14:22:41;6.38;;;3.95;;
9970;SDS011;5026;51.494;11.974;2023-08-12T14:25:11;4.68;;;3.30;;
9970;SDS011;5026;51.494;11.974;2023-08-12T14:27:38;6.25;;;3.90;;
9970;SDS011;5026;51.494;11.974;2023-08-12T14:30:06;5.47;;;3.40;;
9970;SDS011;5026;51.494;11.974;2023-08-12T14:32:34;5.45;;;3.60;;
9970;SDS011;5026;51.494;11.974;2023-08-12T14:35:01;5.03;;;3.67;;
9970;SDS011;5026;51.494;11.974;2023-08-12T14:37:28;6.45;;;3.47;;
9970;SDS011;5026;51.494;11.974;2023-08-12T14:39:55;4.57;;;3.38;;
9970;SDS011;5026;51.494;11.974;2023-08-12T14:42:24;7.97;;;3.70;;
9970;SDS011;5026;51.494;11.974;2023-08-12T14:44:51;8.77;;;4.15;;
9970;SDS011;5026;51.494;11.974;2023-08-12T14:47:17;6.50;;;4.00;;
9970;SDS011;5026;51.494;11.974;2023-08-12T14:49:45;8.05;;;3.70;;
9970;SDS011;5026;51.494;11.974;2023-08-12T14:52:15;7.32;;;4.03;;
9970;SDS011;5026;51.494;11.974;2023-08-12T14:54:43;5.72;;;4.40;;
9970;SDS011;5026;51.494;11.974;2023-08-12T14:57:10;5.80;;;3.45;;
9970;SDS011;5026;51.494;11.974;2023-08-12T14:59:39;6.72;;;3.60;;
9970;SDS011;5026;51.494;11.974;2023-08-12T15:02:06;6.28;;;3.85;;
9970;SDS011;5026;51.494;11.974;2023-08-12T15:04:33;4.97;;;3.72;;
9970;SDS011;5026;51.494;11.974;2023-08-12T15:07:00;4.13;;;3.00;;